Time;durP1;ratioP1;P1;durP2;ratioP2;P2;SDS_P1;SDS_P2;PMS_P1;PMS_P2;Temp;Humidity;BMP_temperature;BMP_pressure;BME280_temperature;BME280_humidity;BME280_pressure;Samples;Min_cycle;Max_cycle;Signal;HPM_P1;HPM_P2
2022/03/19 00:02:18;;;;;;;;;;;;;;;-3.78;64.89;103414.71;1786152;80;20190;-58
2022/03/19 00:05:22;;;;;;;;;;;;;;;-3.78;64.93;103408.02;1772055;81;20249;-59
2022/03/19 00:08:27;;;;;;;;;;;;;;;-3.78;64.99;103405.34;1772327;81;20273;-59
2022/03/19 00:11:32;;;;;;;;;;;;;;;-3.84;64.95;103399.14;1772156;81;20261;-59
2022/03/19 00:14:38;;;;;;;;;;;;;;;-3.87;64.96;103404.52;1772182;81;20186;-59
2022/03/19 00:17:44;;;;;;;;;;;;;;;-3.93;64.93;103396.55;1772732;81;20201;-60
2022/03/19 00:20:49;;;;;;;;;;;;;;;-3.95;65.10;103394.33;1772089;81;20194;-60
2022/03/19 00:23:54;;;;;;;;;;;;;;;-3.95;65.29;103397.00;1772172;81;20218;-59
2022/03/19 00:26:59;;;;;;;;;;;;;;;-3.94;65.25;103400.09;1772380;81;20270;-60
2022/03/19 00:30:02;;;;;;;;;;;;;;;-3.96;65.16;103403.22;1772308;81;20202;-60
2022/03/19 00:33:06;;;;;;;;;;;;;;;-3.96;65.23;103396.09;1772571;81;20205;-60
2022/03/19 00:36:11;;;;;;;;;;;;;;;-4.06;64.82;103394.84;1772133;80;20308;-60
2022/03/19 00:39:16;;;;;;;;;;;;;;;-4.17;64.86;103392.22;1772797;80;20218;-60
2022/03/19 00:42:24;;;;;;;;;;;;;;;-4.27;64.92;103384.27;1772183;80;20206;-60
2022/03/19 00:45:29;;;;;;;;;;;;;;;-4.31;65.37;103385.20;1721425;83;20227;-60
2022/03/19 00:48:33;;;;;;;;;;;;;;;-4.30;65.65;103389.64;1721307;83;20187;-59
2022/03/19 00:51:42;;;;;;;;;;;;;;;-4.30;65.65;103380.28;1721346;83;20226;-59
2022/03/19 00:54:46;;;;;;;;;;;;;;;-4.35;65.69;103378.08;1721101;83;20192;-59
2022/03/19 00:57:53;;;;;;;;;;;;;;;-4.38;65.77;103374.09;1721979;83;20183;-60
2022/03/19 01:00:59;;;;;;;;;;;;;;;-4.43;65.84;103375.45;1721306;83;20246;-59
2022/03/19 01:04:05;;;;;;;;;;;;;;;-4.50;65.89;103376.37;1721668;83;20212;-60
2022/03/19 01:07:11;;;;;;;;;;;;;;;-4.54;65.95;103369.71;1721194;83;20236;-60
2022/03/19 01:10:17;;;;;;;;;;;;;;;-4.58;66.08;103373.31;1772908;80;20213;-59
2022/03/19 01:13:23;;;;;;;;;;;;;;;-4.60;66.31;103366.17;1772238;80;20198;-61
2022/03/19 01:16:28;;;;;;;;;;;;;;;-4.60;66.48;103370.18;1772073;80;20194;-60
2022/03/19 01:22:55;;;;;;;;;;;;;;;-4.51;66.99;103368.36;1724193;80;20190;-60
2022/03/19 01:26:01;;;;;;;;;;;;;;;-4.43;67.14;103367.87;1784329;80;20205;-61
2022/03/19 01:29:07;;;;;;;;;;;;;;;-4.33;67.17;103366.49;1772539;81;20190;-61
2022/03/19 01:32:12;;;;;;;;;;;;;;;-4.25;66.99;103369.98;1772331;81;20193;-59
2022/03/19 01:35:22;;;;;;;;;;;;;;;-4.20;66.83;103372.66;1772931;79;20529;-60
2022/03/19 01:38:26;;;;;;;;;;;;;;;-4.17;66.69;103374.83;1772152;81;20258;-60
2022/03/19 01:41:30;;;;;;;;;;;;;;;-4.16;66.47;103375.30;1772313;81;20182;-60
2022/03/19 01:44:35;;;;;;;;;;;;;;;-4.15;66.40;103365.45;1772897;81;20194;-60
2022/03/19 01:47:39;;;;;;;;;;;;;;;-4.18;66.17;103366.38;1772812;81;20210;-60
2022/03/19 01:50:43;;;;;;;;;;;;;;;-4.18;66.19;103370.83;1772053;81;20166;-60
2022/03/19 01:53:48;;;;;;;;;;;;;;;-4.19;66.14;103372.64;1772336;81;20211;-60
2022/03/19 01:56:54;;;;;;;;;;;;;;;-4.21;66.12;103375.77;1772202;81;20621;-60
2022/03/19 01:59:58;;;;;;;;;;;;;;;-4.26;65.90;103374.00;1772177;81;20209;-60
2022/03/19 02:03:05;;;;;;;;;;;;;;;-4.38;65.64;103371.41;1772241;80;20182;-60
2022/03/19 02:06:11;;;;;;;;;;;;;;;-4.47;65.75;103383.50;1775876;80;20519;-60
2022/03/19 02:09:15;;;;;;;;;;;;;;;-4.54;65.90;103384.41;1794412;80;20206;-60
2022/03/19 02:12:22;;;;;;;;;;;;;;;-4.59;65.90;103383.10;1794248;80;20250;-60
2022/03/19 02:15:30;;;;;;;;;;;;;;;-4.66;66.04;103379.56;1794211;80;20186;-60
2022/03/19 02:18:34;;;;;;;;;;;;;;;-4.73;66.04;103377.84;1794541;80;20249;-59
2022/03/19 02:21:48;;;;;;;;;;;;;;;-4.79;66.24;103374.30;1794469;80;20542;-60
2022/03/19 02:28:20;;;;;;;;;;;;;;;-4.80;66.81;103364.05;1794564;80;20261;-59
2022/03/19 02:31:25;;;;;;;;;;;;;;;-4.81;66.79;103364.95;1794075;80;20558;-61
2022/03/19 02:34:37;;;;;;;;;;;;;;;-4.83;66.72;103370.73;1794559;80;20198;-62
2022/03/19 02:37:47;;;;;;;;;;;;;;;-4.88;66.52;103369.86;1779979;79;20221;-61
2022/03/19 02:40:52;;;;;;;;;;;;;;;-4.94;66.53;103373.89;1772408;81;20194;-60
2022/03/19 02:43:57;;;;;;;;;;;;;;;-4.98;66.51;103385.47;1772412;81;20229;-59
2022/03/19 02:47:05;;;;;;;;;;;;;;;-5.04;66.43;103384.16;1772371;81;20254;-60
2022/03/19 02:50:10;;;;;;;;;;;;;;;-5.06;66.69;103389.94;1772643;81;20206;-60
2022/03/19 02:53:17;;;;;;;;;;;;;;;-5.07;66.86;103389.51;1772381;81;20182;-60
2022/03/19 02:56:21;;;;;;;;;;;;;;;-5.02;67.11;103393.50;1772638;81;20226;-61
2022/03/19 02:59:28;;;;;;;;;;;;;;;-5.01;67.18;103392.16;1793958;79;20240;-60
2022/03/19 03:02:32;;;;;;;;;;;;;;;-4.96;67.36;103391.70;1807094;79;20197;-60
2022/03/19 03:05:37;;;;;;;;;;;;;;;-4.90;67.37;103397.02;1807160;79;20213;-60
2022/03/19 03:08:42;;;;;;;;;;;;;;;-4.90;67.10;103395.68;1807014;79;20300;-60
2022/03/19 03:11:48;;;;;;;;;;;;;;;-4.91;66.96;103395.25;1807050;79;20249;-60
2022/03/19 03:14:55;;;;;;;;;;;;;;;-4.90;67.12;103396.16;1806041;79;20269;-61
2022/03/19 03:18:01;;;;;;;;;;;;;;;-4.85;67.52;103399.67;1806790;79;20209;-61
2022/03/19 03:21:07;;;;;;;;;;;;;;;-4.76;67.85;103395.18;1806955;79;20225;-60
2022/03/19 03:24:11;;;;;;;;;;;;;;;-4.67;67.84;103396.94;1807365;79;20225;-61
2022/03/19 03:27:19;;;;;;;;;;;;;;;-4.63;67.69;103393.38;1807482;79;20269;-61
2022/03/19 03:30:23;;;;;;;;;;;;;;;-4.79;67.31;103390.33;1807389;79;20197;-61
2022/03/19 03:33:28;;;;;;;;;;;;;;;-4.86;67.50;103390.79;1807325;79;20261;-60
2022/03/19 03:36:34;;;;;;;;;;;;;;;-4.83;67.67;103381.86;1807378;79;20869;-61
2022/03/19 03:39:37;;;;;;;;;;;;;;;-4.79;67.72;103384.52;1804152;79;20557;-62
2022/03/19 03:42:46;;;;;;;;;;;;;;;-4.74;67.65;103388.06;1807378;79;20217;-60
2022/03/19 03:45:51;;;;;;;;;;;;;;;-4.80;67.36;103384.08;1807400;78;20173;-60
2022/03/19 03:48:57;;;;;;;;;;;;;;;-4.76;67.39;103384.49;1807245;79;20257;-61
2022/03/19 03:52:02;;;;;;;;;;;;;;;-4.77;66.94;103386.73;1807122;79;20659;-61
2022/03/19 03:55:07;;;;;;;;;;;;;;;-4.77;66.77;103392.08;1807343;78;20189;-60
2022/03/19 03:58:12;;;;;;;;;;;;;;;-4.70;66.73;103394.28;1806749;79;20185;-61
2022/03/19 04:01:18;;;;;;;;;;;;;;;-4.57;66.76;103398.22;1774903;79;20669;-60
2022/03/19 04:04:23;;;;;;;;;;;;;;;-4.43;66.47;103399.95;1781333;79;20237;-62
2022/03/19 04:07:31;;;;;;;;;;;;;;;-4.26;66.15;103400.73;1804714;79;20190;-61
2022/03/19 04:10:37;;;;;;;;;;;;;;;-4.12;65.89;103401.58;1806477;78;20206;-61
2022/03/19 04:13:42;;;;;;;;;;;;;;;-4.00;65.51;103402.39;1806629;79;20202;-60
2022/03/19 04:16:47;;;;;;;;;;;;;;;-3.87;65.13;103396.02;1807060;79;20201;-60
2022/03/19 04:19:53;;;;;;;;;;;;;;;-3.79;64.57;103400.01;1807522;78;20241;-61
2022/03/19 04:22:59;;;;;;;;;;;;;;;-3.80;64.26;103406.23;1806997;79;20253;-60
2022/03/19 04:26:04;;;;;;;;;;;;;;;-3.77;64.07;103402.20;1788249;79;20243;-60
2022/03/19 04:29:10;;;;;;;;;;;;;;;-3.74;63.76;103393.70;1801722;79;20242;-60
2022/03/19 04:32:14;;;;;;;;;;;;;;;-3.74;63.46;103400.39;1801929;79;20250;-60
2022/03/19 04:38:46;;;;;;;;;;;;;;;-3.81;63.23;103404.47;1801510;79;20271;-61
2022/03/19 04:41:52;;;;;;;;;;;;;;;-3.81;63.43;103401.80;1801471;80;20215;-61
2022/03/19 04:44:57;;;;;;;;;;;;;;;-3.76;63.38;103407.53;1801751;80;20207;-61
2022/03/19 04:48:03;;;;;;;;;;;;;;;-3.71;63.33;103408.87;1801678;80;20211;-60
2022/03/19 04:51:08;;;;;;;;;;;;;;;-3.59;63.40;103406.98;1801829;80;20590;-60
2022/03/19 04:54:13;;;;;;;;;;;;;;;-3.49;63.08;103417.16;1801815;80;20587;-61
2022/03/19 04:57:18;;;;;;;;;;;;;;;-3.43;62.59;103402.37;1802091;80;20219;-60
2022/03/19 05:00:25;;;;;;;;;;;;;;;-3.39;62.19;103402.77;1802045;80;20194;-60
2022/03/19 05:03:30;;;;;;;;;;;;;;;-3.36;61.89;103406.75;1802042;80;20203;-60
2022/03/19 05:06:34;;;;;;;;;;;;;;;-3.34;61.73;103408.53;1802182;80;20219;-61
2022/03/19 05:13:02;;;;;;;;;;;;;;;-3.18;61.46;103412.84;1801943;80;20257;-61
2022/03/19 05:16:08;;;;;;;;;;;;;;;-3.10;61.04;103410.08;1802120;80;20385;-61
2022/03/19 05:19:14;;;;;;;;;;;;;;;-3.01;60.94;103415.33;1801939;80;20255;-60
2022/03/19 05:22:18;;;;;;;;;;;;;;;-2.88;60.52;103415.65;1805134;79;20283;-59
2022/03/19 05:25:24;;;;;;;;;;;;;;;-2.75;60.20;103417.30;1801986;80;20239;-59
2022/03/19 05:28:29;;;;;;;;;;;;;;;-2.57;59.94;103427.81;1785948;79;20224;-59
2022/03/19 05:31:36;;;;;;;;;;;;;;;-2.41;59.56;103432.53;1752378;80;20201;-60
2022/03/19 05:34:41;;;;;;;;;;;;;;;-2.23;59.33;103438.53;1769600;81;20546;-60
2022/03/19 05:37:44;;;;;;;;;;;;;;;-2.07;58.83;103445.92;1742180;82;20309;-60
2022/03/19 05:40:49;;;;;;;;;;;;;;;-1.97;58.62;103447.13;1756444;80;20231;-60
2022/03/19 05:43:53;;;;;;;;;;;;;;;-1.83;58.76;103452.29;1775450;81;20528;-60
2022/03/19 05:46:58;;;;;;;;;;;;;;;-1.77;58.12;103450.41;1774833;81;20575;-59
2022/03/19 05:50:03;;;;;;;;;;;;;;;-1.70;58.12;103457.44;1775124;79;20212;-60
2022/03/19 05:53:07;;;;;;;;;;;;;;;-1.63;58.18;103442.12;1774710;81;20590;-60
2022/03/19 05:56:13;;;;;;;;;;;;;;;-1.53;58.10;103446.45;1774695;79;20219;-59
2022/03/19 05:59:21;;;;;;;;;;;;;;;-1.46;57.80;103451.27;1774791;79;20290;-59
2022/03/19 06:02:28;;;;;;;;;;;;;;;-1.43;57.62;103455.25;1774997;81;20295;-60
2022/03/19 06:05:32;;;;;;;;;;;;;;;-1.35;57.51;103455.56;1774925;79;20547;-60
2022/03/19 06:08:39;;;;;;;;;;;;;;;-1.35;56.86;103446.61;1775626;80;20226;-60
2022/03/19 06:11:45;;;;;;;;;;;;;;;-1.35;56.96;103441.23;1775760;80;20195;-59
2022/03/19 06:14:53;;;;;;;;;;;;;;;-1.29;57.22;103439.78;1775785;79;20191;-60
2022/03/19 06:17:58;;;;;;;;;;;;;;;-1.17;57.11;103437.77;1775630;80;20294;-60
2022/03/19 06:21:03;;;;;;;;;;;;;;;-1.09;56.78;103433.14;1778319;79;20390;-61
2022/03/19 06:24:10;;;;;;;;;;;;;;;-1.07;56.55;103431.77;1765757;79;20196;-61
2022/03/19 06:27:15;;;;;;;;;;;;;;;-0.98;56.58;103434.31;1796268;79;20273;-61
2022/03/19 06:30:21;;;;;;;;;;;;;;;-0.89;56.49;103440.41;1771750;79;20203;-61
2022/03/19 06:33:28;;;;;;;;;;;;;;;-0.76;56.42;103435.69;1763623;81;20187;-62
2022/03/19 06:40:06;;;;;;;;;;;;;;;-0.37;55.97;103441.16;1763426;81;20479;-59
2022/03/19 06:43:06;;;;;;;;;;;;;;;-0.21;55.13;103449.78;1762508;81;20223;-60
2022/03/19 06:46:10;;;;;;;;;;;;;;;-0.10;54.78;103440.57;1760005;79;20205;-60
2022/03/19 06:49:15;;;;;;;;;;;;;;;0.06;54.70;103443.80;1789118;79;20285;-60
2022/03/19 06:52:28;;;;;;;;;;;;;;;0.18;54.08;103451.59;1805847;79;20269;-59
2022/03/19 06:55:31;;;;;;;;;;;;;;;0.28;53.24;103450.47;1806729;79;20557;-61
2022/03/19 06:58:36;;;;;;;;;;;;;;;0.41;52.58;103443.87;1806827;79;20351;-60
2022/03/19 07:01:41;;;;;;;;;;;;;;;0.51;51.69;103446.75;1790359;79;20216;-59
2022/03/19 07:04:48;;;;;;;;;;;;;;;0.60;50.88;103444.31;1807407;79;20253;-61
2022/03/19 07:07:53;;;;;;;;;;;;;;;0.61;49.47;103457.74;1807222;79;20193;-63
2022/03/19 07:10:59;;;;;;;;;;;;;;;0.63;49.25;103452.31;1806276;79;20236;-61
2022/03/19 07:14:05;;;;;;;;;;;;;;;0.71;48.60;103447.17;1806546;79;20329;-61
2022/03/19 07:17:11;;;;;;;;;;;;;;;0.76;48.25;103456.00;1806642;79;20210;-61
2022/03/19 07:20:18;;;;;;;;;;;;;;;0.87;48.05;103449.01;1806535;79;20201;-60
2022/03/19 07:23:24;;;;;;;;;;;;;;;0.95;47.58;103449.21;1806982;79;20581;-60
2022/03/19 07:26:32;;;;;;;;;;;;;;;1.02;46.76;103448.14;1806790;79;20297;-60
2022/03/19 07:29:37;;;;;;;;;;;;;;;1.10;46.08;103447.48;1784208;79;20210;-61
2022/03/19 07:32:43;;;;;;;;;;;;;;;1.24;45.71;103439.89;1772941;81;20539;-62
2022/03/19 07:35:49;;;;;;;;;;;;;;;1.37;45.07;103437.28;1773323;79;20305;-61
2022/03/19 07:38:54;;;;;;;;;;;;;;;1.52;45.16;103440.02;1773027;81;20665;-61
2022/03/19 07:41:59;;;;;;;;;;;;;;;1.63;43.85;103429.80;1773339;80;20511;-61
2022/03/19 07:45:04;;;;;;;;;;;;;;;1.73;43.89;103432.63;1773805;79;20193;-60
2022/03/19 07:48:11;;;;;;;;;;;;;;;1.87;43.17;103430.88;1776150;80;20293;-59
2022/03/19 07:51:18;;;;;;;;;;;;;;;1.80;41.94;103425.23;1781990;79;20206;-60
2022/03/19 07:54:27;;;;;;;;;;;;;;;1.83;41.94;103437.29;1778271;79;20237;-59
2022/03/19 07:57:30;;;;;;;;;;;;;;;1.85;41.54;103435.44;1767130;80;20217;-60
2022/03/19 08:00:35;;;;;;;;;;;;;;;1.92;40.94;103438.39;1793819;78;20558;-62
2022/03/19 08:03:42;;;;;;;;;;;;;;;1.94;40.20;103445.50;1773610;80;20237;-59
2022/03/19 08:06:53;;;;;;;;;;;;;;;1.88;39.99;103430.84;1793046;80;20590;-61
2022/03/19 08:09:59;;;;;;;;;;;;;;;1.87;40.38;103429.05;1791874;78;20209;-62
2022/03/19 08:13:12;;;;;;;;;;;;;;;1.96;40.04;103434.65;1793273;80;20213;-61
2022/03/19 08:16:19;;;;;;;;;;;;;;;1.98;39.80;103432.34;1789375;78;20214;-60
2022/03/19 08:19:25;;;;;;;;;;;;;;;2.04;40.02;103438.90;1772694;79;20530;-61
2022/03/19 08:22:35;;;;;;;;;;;;;;;2.12;40.14;103435.95;1773019;81;20213;-60
2022/03/19 08:25:42;;;;;;;;;;;;;;;2.21;40.15;103446.01;1761896;80;20552;-62
2022/03/19 08:28:47;;;;;;;;;;;;;;;2.26;39.51;103444.05;1761705;81;20211;-60
2022/03/19 08:31:53;;;;;;;;;;;;;;;2.38;40.07;103440.09;1765825;80;20261;-63
2022/03/19 08:34:59;;;;;;;;;;;;;;;2.52;40.34;103433.77;1772813;80;20303;-62
2022/03/19 08:41:26;;;;;;;;;;;;;;;2.50;39.38;103435.63;1783998;80;20208;-64
2022/03/19 08:44:31;;;;;;;;;;;;;;;2.58;39.53;103426.34;1778121;79;20213;-63
2022/03/19 08:47:35;;;;;;;;;;;;;;;2.65;39.03;103422.93;1769889;80;20223;-62
2022/03/19 08:50:39;;;;;;;;;;;;;;;2.72;38.52;103419.98;1793269;80;20205;-63
2022/03/19 08:53:43;;;;;;;;;;;;;;;2.77;37.67;103418.02;1793688;79;20249;-63
2022/03/19 08:56:53;;;;;;;;;;;;;;;2.86;37.41;103414.09;1793578;80;20303;-63
2022/03/19 09:00:01;;;;;;;;;;;;;;;2.92;36.96;103412.52;1762377;80;20215;-63
2022/03/19 09:03:08;;;;;;;;;;;;;;;3.02;35.85;103418.05;1742743;81;20255;-66
2022/03/19 09:06:14;;;;;;;;;;;;;;;3.06;35.14;103412.92;1789173;80;20241;-62
2022/03/19 09:09:19;;;;;;;;;;;;;;;3.17;35.47;103412.11;1792897;80;20241;-62
2022/03/19 09:12:29;;;;;;;;;;;;;;;3.33;34.71;103416.49;1792968;80;20304;-62
2022/03/19 09:15:36;;;;;;;;;;;;;;;3.32;32.67;103399.81;1792723;80;20258;-61
2022/03/19 09:18:43;;;;;;;;;;;;;;;3.29;32.05;103407.59;1770062;80;20609;-64
2022/03/19 09:21:51;;;;;;;;;;;;;;;3.25;31.47;103400.99;1793063;80;20280;-63
2022/03/19 09:24:57;;;;;;;;;;;;;;;3.26;31.64;103408.16;1730885;82;20200;-62
2022/03/19 09:28:02;;;;;;;;;;;;;;;3.33;32.75;103407.88;1728977;83;20214;-62
2022/03/19 09:31:07;;;;;;;;;;;;;;;3.48;32.25;103399.66;1719128;83;20251;-62
2022/03/19 09:34:13;;;;;;;;;;;;;;;3.57;31.44;103403.41;1703854;83;20221;-62
2022/03/19 09:37:17;;;;;;;;;;;;;;;3.67;30.80;103417.00;1761305;81;20521;-62
2022/03/19 09:40:23;;;;;;;;;;;;;;;3.67;30.70;103402.98;1762296;81;20243;-62
2022/03/19 09:43:31;;;;;;;;;;;;;;;3.76;31.61;103395.00;1762203;81;20545;-62
2022/03/19 09:46:35;;;;;;;;;;;;;;;3.89;31.84;103403.04;1769734;81;20204;-63
2022/03/19 09:49:40;;;;;;;;;;;;;;;4.01;30.56;103395.80;1767072;80;20238;-63
2022/03/19 09:52:45;;;;;;;;;;;;;;;4.05;30.57;103392.02;1792274;80;20265;-61
2022/03/19 09:55:51;;;;;;;;;;;;;;;4.18;30.97;103402.33;1792589;78;20239;-61
2022/03/19 09:58:56;;;;;;;;;;;;;;;4.38;31.49;103396.07;1793305;80;20517;-62
2022/03/19 10:02:03;;;;;;;;;;;;;;;4.59;31.07;103398.80;1793373;80;20205;-62
2022/03/19 10:08:35;;;;;;;;;;;;;;;4.63;30.29;103390.92;1793259;78;20198;-62
2022/03/19 10:11:42;;;;;;;;;;;;;;;4.86;29.64;103386.34;1793503;80;20214;-61
2022/03/19 10:14:47;;;;;;;;;;;;;;;5.01;29.45;103386.56;1788626;78;20216;-63
2022/03/19 10:17:53;;;;;;;;;;;;;;;5.06;29.17;103382.31;1775413;80;20315;-61
2022/03/19 10:20:59;;;;;;;;;;;;;;;5.09;28.97;103378.10;1789490;80;20594;-62
2022/03/19 10:24:04;;;;;;;;;;;;;;;5.15;28.78;103376.00;1801105;80;20217;-61
2022/03/19 10:27:10;;;;;;;;;;;;;;;5.20;28.48;103371.72;1801389;80;20672;-62
2022/03/19 10:30:24;;;;;;;;;;;;;;;5.25;28.66;103367.83;1794998;80;20605;-63
2022/03/19 10:33:32;;;;;;;;;;;;;;;5.31;28.20;103370.26;1777370;79;20202;-58
2022/03/19 10:36:42;;;;;;;;;;;;;;;5.31;27.90;103373.47;1800661;80;20628;-61
2022/03/19 10:39:49;;;;;;;;;;;;;;;5.33;27.96;103372.44;1800369;80;20554;-63
2022/03/19 10:42:53;;;;;;;;;;;;;;;5.28;28.00;103369.55;1802977;79;20217;-61
2022/03/19 10:46:00;;;;;;;;;;;;;;;5.31;28.41;103364.83;1795086;79;20202;-63
2022/03/19 10:49:04;;;;;;;;;;;;;;;5.46;28.91;103364.14;1790064;80;20213;-60
2022/03/19 10:52:08;;;;;;;;;;;;;;;5.69;28.84;103361.73;1770574;80;20811;-62
2022/03/19 10:55:14;;;;;;;;;;;;;;;5.87;28.58;103352.24;1789977;80;20242;-63
2022/03/19 10:58:20;;;;;;;;;;;;;;;5.99;27.82;103363.88;1789048;80;20248;-61
2022/03/19 11:01:26;;;;;;;;;;;;;;;6.01;26.92;103363.33;1762139;81;20276;-62
2022/03/19 11:04:32;;;;;;;;;;;;;;;5.98;26.77;103350.36;1762512;81;20208;-63
2022/03/19 11:07:42;;;;;;;;;;;;;;;6.10;27.01;103338.91;1762855;81;20211;-63
2022/03/19 11:10:48;;;;;;;;;;;;;;;6.28;26.95;103346.64;1763803;81;20215;-62
2022/03/19 11:13:54;;;;;;;;;;;;;;;6.38;27.06;103337.93;1764181;81;20283;-64
2022/03/19 11:17:28;;;;;;;;;;;;;;;6.51;27.38;103333.64;1768696;80;20224;-59
2022/03/19 11:20:33;;;;;;;;;;;;;;;6.69;27.51;103330.45;1764440;81;20279;-62
2022/03/19 11:23:42;;;;;;;;;;;;;;;6.80;27.24;103333.00;1765012;81;20875;-58
2022/03/19 11:26:48;;;;;;;;;;;;;;;6.91;27.43;103323.78;1773961;80;20248;-62
2022/03/19 11:29:52;;;;;;;;;;;;;;;7.04;26.84;103321.33;1787074;80;20206;-61
2022/03/19 11:33:11;;;;;;;;;;;;;;;7.02;26.61;103320.52;1795771;80;20199;-61
2022/03/19 11:36:16;;;;;;;;;;;;;;;7.14;27.07;103314.41;1795522;80;20210;-60
2022/03/19 11:39:21;;;;;;;;;;;;;;;7.22;26.60;103298.05;1795463;80;20523;-62
2022/03/19 11:42:25;;;;;;;;;;;;;;;7.22;26.27;103300.77;1785789;80;20225;-63
2022/03/19 11:45:31;;;;;;;;;;;;;;;7.28;26.91;103299.55;1757877;80;20215;-63
2022/03/19 11:48:59;;;;;;;;;;;;;;;7.53;26.55;103299.48;1785097;79;20213;-62
2022/03/19 11:52:03;;;;;;;;;;;;;;;7.50;26.21;103298.29;1794221;79;20534;-62
2022/03/19 11:55:12;;;;;;;;;;;;;;;7.49;25.75;103295.65;1774948;79;20302;-62
2022/03/19 11:58:16;;;;;;;;;;;;;;;7.39;25.35;103297.11;1775085;81;20536;-61
2022/03/19 12:01:20;;;;;;;;;;;;;;;7.24;25.24;103289.33;1774429;81;20231;-63
2022/03/19 12:04:27;;;;;;;;;;;;;;;7.23;25.19;103301.67;1773503;79;20218;-63
2022/03/19 12:07:51;;;;;;;;;;;;;;;7.32;25.39;103295.23;1770067;81;20291;-61
2022/03/19 12:11:01;;;;;;;;;;;;;;;7.29;24.96;103294.02;1772499;79;20562;-62
2022/03/19 12:14:15;;;;;;;;;;;;;;;7.37;25.60;103290.38;1764600;79;20218;-60
2022/03/19 12:17:26;;;;;;;;;;;;;;;7.54;25.06;103289.47;1784176;80;20206;-61
2022/03/19 12:20:31;;;;;;;;;;;;;;;7.73;25.21;103282.48;1793641;78;20209;-60
2022/03/19 12:23:37;;;;;;;;;;;;;;;7.89;25.18;103284.27;1798753;78;20246;-62
2022/03/19 12:26:51;;;;;;;;;;;;;;;7.94;24.70;103290.81;1723170;82;20252;-60
2022/03/19 12:29:57;;;;;;;;;;;;;;;7.79;24.47;103286.22;1736344;83;20210;-60
2022/03/19 12:33:04;;;;;;;;;;;;;;;7.72;24.61;103273.92;1740280;81;20266;-62
2022/03/19 12:36:27;;;;;;;;;;;;;;;7.57;24.84;103272.93;1767163;80;20200;-60
2022/03/19 12:39:34;;;;;;;;;;;;;;;7.44;24.49;103274.58;1744118;80;20193;-60
2022/03/19 12:42:42;;;;;;;;;;;;;;;7.43;24.63;103270.99;1746512;81;20233;-60
2022/03/19 12:45:48;;;;;;;;;;;;;;;7.46;24.39;103274.02;1740614;81;20250;-60
2022/03/19 12:48:53;;;;;;;;;;;;;;;7.54;24.83;103271.27;1712090;80;20206;-59
2022/03/19 12:52:16;;;;;;;;;;;;;;;7.70;24.67;103272.64;1760435;81;20228;-61
2022/03/19 12:55:29;;;;;;;;;;;;;;;7.69;24.31;103271.38;1764662;80;20194;-61
2022/03/19 12:58:37;;;;;;;;;;;;;;;7.70;24.07;103274.01;1769695;80;20210;-60
2022/03/19 13:01:44;;;;;;;;;;;;;;;7.52;24.40;103281.38;1770658;80;20249;-60
2022/03/19 13:04:51;;;;;;;;;;;;;;;7.52;24.92;103280.02;1750043;80;20202;-61
2022/03/19 13:08:14;;;;;;;;;;;;;;;7.73;24.90;103266.13;1766985;80;20201;-60
2022/03/19 13:11:19;;;;;;;;;;;;;;;7.77;24.97;103271.31;1767487;81;20203;-60
2022/03/19 13:14:24;;;;;;;;;;;;;;;7.68;24.97;103275.04;1742102;81;20220;-63
2022/03/19 13:17:30;;;;;;;;;;;;;;;7.61;25.18;103275.91;1741574;82;20600;-61
2022/03/19 13:20:36;;;;;;;;;;;;;;;7.46;25.65;103269.45;1758312;81;20542;-61
2022/03/19 13:23:46;;;;;;;;;;;;;;;7.56;26.10;103263.86;1782000;80;20538;-62
2022/03/19 13:26:51;;;;;;;;;;;;;;;7.73;25.94;103274.30;1763238;81;20516;-61
2022/03/19 13:29:58;;;;;;;;;;;;;;;7.63;25.64;103267.63;1778650;80;20206;-62
2022/03/19 13:33:05;;;;;;;;;;;;;;;7.78;25.80;103279.91;1772448;80;20229;-62
2022/03/19 13:36:14;;;;;;;;;;;;;;;7.97;25.71;103265.61;1772915;79;20636;-61
2022/03/19 13:39:21;;;;;;;;;;;;;;;7.90;25.08;103272.84;1759313;81;20596;-63
2022/03/19 13:42:25;;;;;;;;;;;;;;;7.74;25.09;103258.36;1742024;82;20564;-62
2022/03/19 13:45:32;;;;;;;;;;;;;;;7.82;25.76;103257.44;1741135;81;20726;-61
2022/03/19 13:48:39;;;;;;;;;;;;;;;7.91;25.62;103265.97;1746123;80;20251;-60
2022/03/19 13:51:53;;;;;;;;;;;;;;;7.93;25.49;103266.73;1738738;82;20225;-61
2022/03/19 13:55:00;;;;;;;;;;;;;;;8.06;26.07;103255.98;1738744;81;20237;-61
2022/03/19 13:58:11;;;;;;;;;;;;;;;8.30;25.92;103269.12;1742489;82;20320;-62
2022/03/19 14:01:20;;;;;;;;;;;;;;;8.53;25.64;103271.34;1739343;81;20581;-62
2022/03/19 14:04:26;;;;;;;;;;;;;;;8.56;25.50;103280.71;1738873;81;20225;-61
2022/03/19 14:07:40;;;;;;;;;;;;;;;8.63;25.64;103281.22;1742233;82;20221;-60
2022/03/19 14:10:48;;;;;;;;;;;;;;;8.71;25.79;103274.81;1738757;81;20236;-60
2022/03/19 14:13:52;;;;;;;;;;;;;;;8.74;25.82;103270.52;1723378;82;20217;-60
2022/03/19 14:17:08;;;;;;;;;;;;;;;8.76;25.55;103265.86;1762830;81;20218;-60
2022/03/19 14:20:15;;;;;;;;;;;;;;;8.82;25.54;103266.84;1766612;80;20228;-60
2022/03/19 14:23:23;;;;;;;;;;;;;;;8.80;25.60;103257.88;1742705;80;20586;-60
2022/03/19 14:26:30;;;;;;;;;;;;;;;8.81;25.59;103260.52;1767946;81;20777;-60
2022/03/19 14:29:37;;;;;;;;;;;;;;;8.71;25.46;103261.16;1769169;80;20215;-60
2022/03/19 14:32:40;;;;;;;;;;;;;;;8.63;25.92;103260.27;1769431;81;20254;-60
2022/03/19 14:36:06;;;;;;;;;;;;;;;8.61;26.04;103251.28;1769105;80;20262;-60
2022/03/19 14:39:12;;;;;;;;;;;;;;;8.64;25.80;103250.23;1768326;80;20591;-61
2022/03/19 14:42:16;;;;;;;;;;;;;;;8.66;25.46;103249.63;1769177;81;20638;-62
2022/03/19 14:45:23;;;;;;;;;;;;;;;8.56;25.71;103253.41;1738372;81;20220;-62
2022/03/19 14:48:30;;;;;;;;;;;;;;;8.42;25.51;103251.14;1738194;82;20559;-61
2022/03/19 14:51:37;;;;;;;;;;;;;;;8.02;25.90;103259.41;1774913;81;20235;-62
2022/03/19 14:54:42;;;;;;;;;;;;;;;7.94;26.32;103256.72;1757599;81;20222;-61
2022/03/19 14:57:48;;;;;;;;;;;;;;;8.11;26.55;103253.87;1776440;79;20237;-62
2022/03/19 15:00:52;;;;;;;;;;;;;;;8.42;26.61;103262.06;1775549;79;20558;-59
2022/03/19 15:04:00;;;;;;;;;;;;;;;8.83;26.06;103254.96;1788060;79;20211;-60
2022/03/19 15:07:05;;;;;;;;;;;;;;;8.93;25.55;103250.66;1783526;79;20219;-60
2022/03/19 15:10:11;;;;;;;;;;;;;;;8.41;25.88;103250.25;1738777;81;20218;-60
2022/03/19 15:13:31;;;;;;;;;;;;;;;8.02;26.75;103240.78;1774064;81;20305;-61
2022/03/19 15:16:38;;;;;;;;;;;;;;;7.74;27.29;103249.67;1737663;82;20208;-60
2022/03/19 15:19:42;;;;;;;;;;;;;;;7.83;27.52;103240.09;1738188;81;20208;-60
2022/03/19 15:22:49;;;;;;;;;;;;;;;7.95;27.70;103238.00;1774628;81;20499;-60
2022/03/19 15:25:55;;;;;;;;;;;;;;;7.75;27.62;103235.56;1774144;79;20591;-58
2022/03/19 15:29:02;;;;;;;;;;;;;;;7.50;27.99;103237.42;1738013;81;20552;-60
2022/03/19 15:32:07;;;;;;;;;;;;;;;7.26;28.21;103242.91;1774409;81;20259;-60
2022/03/19 15:35:18;;;;;;;;;;;;;;;7.04;28.68;103237.75;1738250;81;20609;-60
2022/03/19 15:38:23;;;;;;;;;;;;;;;6.96;28.98;103238.64;1738299;81;20544;-60
2022/03/19 15:41:27;;;;;;;;;;;;;;;6.78;29.33;103234.67;1775724;79;20528;-60
2022/03/19 15:44:32;;;;;;;;;;;;;;;6.60;29.62;103237.89;1738721;81;20204;-60
2022/03/19 15:47:37;;;;;;;;;;;;;;;6.30;29.78;103235.88;1773335;81;20199;-60
2022/03/19 15:50:42;;;;;;;;;;;;;;;5.93;30.28;103235.53;1740207;79;20560;-62
2022/03/19 15:53:46;;;;;;;;;;;;;;;5.70;30.70;103237.09;1755352;81;20390;-59
2022/03/19 15:56:51;;;;;;;;;;;;;;;5.52;31.26;103237.97;1766385;81;20224;-60
2022/03/19 15:59:56;;;;;;;;;;;;;;;5.35;32.09;103233.36;1762959;81;20314;-60
2022/03/19 16:03:03;;;;;;;;;;;;;;;5.19;32.72;103238.22;1762729;81;20647;-60
2022/03/19 16:06:09;;;;;;;;;;;;;;;5.01;33.10;103244.53;1762872;81;20236;-61
2022/03/19 16:09:15;;;;;;;;;;;;;;;4.85;33.74;103252.49;1744683;81;20196;-60
2022/03/19 16:12:20;;;;;;;;;;;;;;;4.74;34.17;103255.27;1760931;80;20215;-60
2022/03/19 16:15:25;;;;;;;;;;;;;;;4.59;34.35;103247.33;1762091;81;20203;-60
2022/03/19 16:18:32;;;;;;;;;;;;;;;4.47;34.94;103255.52;1752384;81;20608;-61
2022/03/19 16:21:38;;;;;;;;;;;;;;;4.30;34.84;103247.70;1758635;81;20558;-61
2022/03/19 16:24:43;;;;;;;;;;;;;;;4.15;35.29;103251.98;1756771;81;20243;-61
2022/03/19 16:27:53;;;;;;;;;;;;;;;4.01;35.73;103251.65;1757984;81;20253;-61
2022/03/19 16:30:58;;;;;;;;;;;;;;;3.86;36.15;103250.95;1768516;81;20300;-60